ADDS TAF Board (Experimental) INFO Settings
IDs: Format: Expanded Condensed

KMDW - Chicago/Midway Intl, IL, US

Issued at 2331 UTC 04 Aug 2015
Updated at: 0219 UTC 05 Aug 2015
Time0153Z 05/03Z 05/04Z 05/05Z 05/06Z 05/07Z 05/08Z 05/09Z 05/10Z 05/11Z 05/12Z 05/13Z 05/14Z 05/15Z
Type OBS PRVL PRVL PRVL PRVL PRVL PRVL PRVL PRVL PRVL PRVL PRVL PRVL PRVL
VIS 10 >6 >6 >6 >6 >6 >6 >6 >6 >6 >6 >6 >6 >6
CIG 250 250 250 250 250 250 250 250 250 250 250 250 250 250
Cover BKN BKN BKN BKN BKN BKN BKN BKN BKN BKN BKN BKN BKN BKN
FltCat VFR VFR VFR VFR VFR VFR VFR VFR VFR VFR VFR VFR VFR VFR
WX -- -- -- -- -- -- -- -- -- -- -- -- -- --
WDir 80 80 VRB VRB VRB VRB VRB VRB VRB VRB VRB VRB VRB 30
WSpd 9 10 3 3 3 3 3 3 3 3 3 3 3 6
WGst -- -- -- -- -- -- -- -- -- -- -- -- -- --
R04/22
XWnd -5 -6 VRB VRB VRB VRB VRB VRB VRB VRB VRB VRB VRB 1
HWnd 7 8 VRB VRB VRB VRB VRB VRB VRB VRB VRB VRB VRB 6
R13/31
XWnd 7 8 VRB VRB VRB VRB VRB VRB VRB VRB VRB VRB VRB 6
HWnd 5 6 VRB VRB VRB VRB VRB VRB VRB VRB VRB VRB VRB -1

NOTE: TEMPO conditions in [brackets]. Keep in mind TEMPO conditions might be better (lower impact) than prevailing conditions.

Raw TAF
KMDW 042331Z 0500/0524 08010KT P6SM BKN250
  FM050400 VRB03KT P6SM BKN250
  FM051500 03006KT P6SM FEW050 BKN250
  FM052000 09009KT P6SM FEW050 BKN250


Raw METAR
KMDW 050153Z 08009KT 10SM FEW060 BKN250 24/15 A3001 RMK AO2 SLP152 T02440150
KMDW 050053Z 03007KT 10SM FEW060 FEW180 BKN250 26/12 A2997 RMK AO2 SLP140 T02560122
KMDW 042353Z 09008KT 10SM FEW060 FEW180 BKN250 26/13 A2993 RMK AO2 SLP127 T02610128 10289 20261 58008

METAR Board
Radar Display
Forecast Discussion

TAF Board Legend

Potential Impact
Threat None Slight Moderate High
Visibility (sm) ≥5.1 5.1>X≥3 3>X≥1 <1
Ceiling (100 ft) ≥30.1 30.1>X≥10 10>X≥5 <5
Wind Speed (kt) <10 10≤X<20 20≤X<30 ≥30
Wind Gust (kt) <15 15≤X<25 25≤X<35 ≥35
Weather No Wx Reported VCTS,-TS,-FZRA,SN TS,FZRA +TS,+FZRA,+SN